sensor_id;sensor_type;location;lat;lon;timestamp;pressure;altitude;pressure_sealevel;temperature;humidity
51287;BME280;37364;46.974;18.916;2023-04-19T00:01:23;152849.31;;;9.93;100.00
51287;BME280;37364;46.974;18.916;2023-04-19T00:03:54;152840.25;;;9.89;100.00
51287;BME280;37364;46.974;18.916;2023-04-19T00:06:25;152849.31;;;9.93;100.00
51287;BME280;37364;46.974;18.916;2023-04-19T00:08:56;152844.13;;;9.90;100.00
51287;BME280;37364;46.974;18.916;2023-04-19T00:11:26;152849.31;;;9.93;100.00
51287;BME280;37364;46.974;18.916;2023-04-19T00:13:57;152858.38;;;9.96;100.00
51287;BME280;37364;46.974;18.916;2023-04-19T00:16:29;152864.84;;;9.99;100.00
51287;BME280;37364;46.974;18.916;2023-04-19T00:19:00;152844.13;;;9.90;100.00
51287;BME280;37364;46.974;18.916;2023-04-19T00:21:30;152863.56;;;9.98;100.00
51287;BME280;37364;46.974;18.916;2023-04-19T00:24:01;152879.09;;;10.04;100.00
51287;BME280;37364;46.974;18.916;2023-04-19T00:26:31;152881.66;;;10.05;100.00
51287;BME280;37364;46.974;18.916;2023-04-19T00:29:01;152875.19;;;10.03;100.00
51287;BME280;37364;46.974;18.916;2023-04-19T00:31:35;152872.63;;;10.02;100.00
51287;BME280;37364;46.974;18.916;2023-04-19T00:34:06;152877.81;;;10.04;100.00
51287;BME280;37364;46.974;18.916;2023-04-19T00:36:36;152872.63;;;10.02;100.00
51287;BME280;37364;46.974;18.916;2023-04-19T00:39:06;152875.19;;;10.03;100.00
51287;BME280;37364;46.974;18.916;2023-04-19T00:41:37;152880.38;;;10.05;100.00
51287;BME280;37364;46.974;18.916;2023-04-19T00:44:08;152885.53;;;10.07;100.00
51287;BME280;37364;46.974;18.916;2023-04-19T00:46:41;152879.09;;;10.04;100.00
51287;BME280;37364;46.974;18.916;2023-04-19T00:49:12;152879.09;;;10.04;100.00
51287;BME280;37364;46.974;18.916;2023-04-19T00:51:42;152901.06;;;10.13;100.00
51287;BME280;37364;46.974;18.916;2023-04-19T00:54:13;152889.44;;;10.08;100.00
51287;BME280;37364;46.974;18.916;2023-04-19T00:56:44;152885.53;;;10.07;100.00
51287;BME280;37364;46.974;18.916;2023-04-19T00:59:16;152879.09;;;10.04;100.00
51287;BME280;37364;46.974;18.916;2023-04-19T01:01:50;152884.25;;;10.06;100.00
51287;BME280;37364;46.974;18.916;2023-04-19T01:04:20;152890.72;;;10.09;100.00
51287;BME280;37364;46.974;18.916;2023-04-19T01:06:51;152898.50;;;10.12;100.00
51287;BME280;37364;46.974;18.916;2023-04-19T01:09:24;152889.44;;;10.08;100.00
51287;BME280;37364;46.974;18.916;2023-04-19T01:11:56;152890.72;;;10.09;100.00
51287;BME280;37364;46.974;18.916;2023-04-19T01:14:27;152877.81;;;10.04;100.00
51287;BME280;37364;46.974;18.916;2023-04-19T01:17:00;152893.31;;;10.10;100.00
51287;BME280;37364;46.974;18.916;2023-04-19T01:19:30;152880.38;;;10.05;100.00
51287;BME280;37364;46.974;18.916;2023-04-19T01:22:00;152880.38;;;10.05;100.00
51287;BME280;37364;46.974;18.916;2023-04-19T01:24:35;152881.66;;;10.05;100.00
51287;BME280;37364;46.974;18.916;2023-04-19T01:27:07;152892.03;;;10.09;100.00
51287;BME280;37364;46.974;18.916;2023-04-19T01:29:39;152898.50;;;10.12;100.00
51287;BME280;37364;46.974;18.916;2023-04-19T01:32:09;152893.31;;;10.10;100.00
51287;BME280;37364;46.974;18.916;2023-04-19T01:34:39;152915.31;;;10.19;100.00
51287;BME280;37364;46.974;18.916;2023-04-19T01:37:10;152921.81;;;10.21;100.00
51287;BME280;37364;46.974;18.916;2023-04-19T01:39:43;152929.56;;;10.24;100.00
51287;BME280;37364;46.974;18.916;2023-04-19T01:42:13;152941.22;;;10.29;100.00
51287;BME280;37364;46.974;18.916;2023-04-19T01:44:43;152939.91;;;10.28;100.00
51287;BME280;37364;46.974;18.916;2023-04-19T01:47:13;152951.63;;;10.33;100.00
51287;BME280;37364;46.974;18.916;2023-04-19T01:49:44;152925.66;;;10.23;100.00
51287;BME280;37364;46.974;18.916;2023-04-19T01:52:15;152939.91;;;10.28;100.00
51287;BME280;37364;46.974;18.916;2023-04-19T01:54:49;152956.81;;;10.35;100.00
51287;BME280;37364;46.974;18.916;2023-04-19T01:57:19;152958.09;;;10.36;100.00
51287;BME280;37364;46.974;18.916;2023-04-19T01:59:51;152949.03;;;10.32;100.00
51287;BME280;37364;46.974;18.916;2023-04-19T02:02:22;152942.50;;;10.29;100.00
51287;BME280;37364;46.974;18.916;2023-04-19T02:04:53;152927.00;;;10.23;100.00
51287;BME280;37364;46.974;18.916;2023-04-19T02:07:23;152921.81;;;10.21;100.00
51287;BME280;37364;46.974;18.916;2023-04-19T02:09:56;152897.22;;;10.12;100.00
51287;BME280;37364;46.974;18.916;2023-04-19T02:12:27;152892.03;;;10.09;100.00
51287;BME280;37364;46.974;18.916;2023-04-19T02:14:57;152884.25;;;10.06;100.00
51287;BME280;37364;46.974;18.916;2023-04-19T02:17:33;152867.44;;;10.00;100.00
51287;BME280;37364;46.974;18.916;2023-04-19T02:20:05;152882.97;;;10.06;100.00
51287;BME280;37364;46.974;18.916;2023-04-19T02:22:35;152864.84;;;9.99;100.00
51287;BME280;37364;46.974;18.916;2023-04-19T02:25:09;152860.94;;;9.97;100.00
51287;BME280;37364;46.974;18.916;2023-04-19T02:27:39;152853.22;;;9.94;100.00
51287;BME280;37364;46.974;18.916;2023-04-19T02:30:10;152849.31;;;9.93;100.00
51287;BME280;37364;46.974;18.916;2023-04-19T02:32:40;152842.84;;;9.90;100.00
51287;BME280;37364;46.974;18.916;2023-04-19T02:35:11;152836.34;;;9.87;100.00
51287;BME280;37364;46.974;18.916;2023-04-19T02:37:43;152831.19;;;9.85;100.00
51287;BME280;37364;46.974;18.916;2023-04-19T02:40:16;152814.38;;;9.79;100.00
51287;BME280;37364;46.974;18.916;2023-04-19T02:42:49;152804.03;;;9.75;100.00
51287;BME280;37364;46.974;18.916;2023-04-19T02:45:20;152801.41;;;9.74;100.00
51287;BME280;37364;46.974;18.916;2023-04-19T02:47:53;152793.69;;;9.70;100.00
51287;BME280;37364;46.974;18.916;2023-04-19T02:50:26;152774.28;;;9.63;100.00
51287;BME280;37364;46.974;18.916;2023-04-19T02:52:56;152775.56;;;9.63;100.00
51287;BME280;37364;46.974;18.916;2023-04-19T02:55:32;152757.44;;;9.56;100.00
51287;BME280;37364;46.974;18.916;2023-04-19T02:58:11;152749.69;;;9.53;100.00
51287;BME280;37364;46.974;18.916;2023-04-19T03:00:53;152721.22;;;9.42;100.00
51287;BME280;37364;46.974;18.916;2023-04-19T03:03:24;152730.28;;;9.45;100.00
51287;BME280;37364;46.974;18.916;2023-04-19T03:05:54;152699.25;;;9.33;100.00
51287;BME280;37364;46.974;18.916;2023-04-19T03:08:25;152714.75;;;9.39;100.00
51287;BME280;37364;46.974;18.916;2023-04-19T03:10:58;152688.84;;;9.29;100.00
51287;BME280;37364;46.974;18.916;2023-04-19T03:13:30;152690.19;;;9.29;100.00
51287;BME280;37364;46.974;18.916;2023-04-19T03:16:00;152694.06;;;9.31;100.00
51287;BME280;37364;46.974;18.916;2023-04-19T03:18:31;152688.84;;;9.29;100.00
51287;BME280;37364;46.974;18.916;2023-04-19T03:21:03;152696.63;;;9.32;100.00
51287;BME280;37364;46.974;18.916;2023-04-19T03:23:55;152679.84;;;9.25;100.00
51287;BME280;37364;46.974;18.916;2023-04-19T03:26:28;152673.34;;;9.23;100.00
51287;BME280;37364;46.974;18.916;2023-04-19T03:29:00;152664.31;;;9.19;100.00
51287;BME280;37364;46.974;18.916;2023-04-19T03:31:35;152669.50;;;9.21;100.00
51287;BME280;37364;46.974;18.916;2023-04-19T03:34:10;152647.47;;;9.13;100.00
51287;BME280;37364;46.974;18.916;2023-04-19T03:36:44;152647.47;;;9.13;100.00
51287;BME280;37364;46.974;18.916;2023-04-19T03:39:14;152633.25;;;9.07;100.00
51287;BME280;37364;46.974;18.916;2023-04-19T03:41:51;152612.56;;;8.99;100.00
51287;BME280;37364;46.974;18.916;2023-04-19T03:44:25;152599.63;;;8.94;100.00
51287;BME280;37364;46.974;18.916;2023-04-19T03:46:56;152578.94;;;8.85;100.00
51287;BME280;37364;46.974;18.916;2023-04-19T03:49:29;152559.53;;;8.78;100.00
51287;BME280;37364;46.974;18.916;2023-04-19T03:52:03;152564.69;;;8.80;100.00
51287;BME280;37364;46.974;18.916;2023-04-19T03:54:34;152544.03;;;8.71;100.00
51287;BME280;37364;46.974;18.916;2023-04-19T03:57:11;152531.13;;;8.66;100.00
51287;BME280;37364;46.974;18.916;2023-04-19T03:59:42;152525.91;;;8.64;100.00
51287;BME280;37364;46.974;18.916;2023-04-19T04:02:12;152549.19;;;8.74;100.00
51287;BME280;37364;46.974;18.916;2023-04-19T04:04:42;152556.97;;;8.77;100.00
51287;BME280;37364;46.974;18.916;2023-04-19T04:07:13;152542.75;;;8.71;100.00
51287;BME280;37364;46.974;18.916;2023-04-19T04:09:43;152542.75;;;8.71;100.00
51287;BME280;37364;46.974;18.916;2023-04-19T04:12:17;152541.47;;;8.70;100.00
51287;BME280;37364;46.974;18.916;2023-04-19T04:14:48;152549.19;;;8.74;100.00
51287;BME280;37364;46.974;18.916;2023-04-19T04:17:19;152545.31;;;8.72;100.00
51287;BME280;37364;46.974;18.916;2023-04-19T04:19:51;152564.69;;;8.80;100.00
51287;BME280;37364;46.974;18.916;2023-04-19T04:22:24;152569.88;;;8.82;100.00
51287;BME280;37364;46.974;18.916;2023-04-19T04:24:54;152562.16;;;8.79;100.00
51287;BME280;37364;46.974;18.916;2023-04-19T04:27:33;152572.47;;;8.83;100.00
51287;BME280;37364;46.974;18.916;2023-04-19T04:30:05;152572.47;;;8.83;100.00
51287;BME280;37364;46.974;18.916;2023-04-19T04:32:36;152593.16;;;8.91;100.00
51287;BME280;37364;46.974;18.916;2023-04-19T04:35:08;152593.16;;;8.91;100.00
51287;BME280;37364;46.974;18.916;2023-04-19T04:37:50;152616.47;;;9.00;100.00
51287;BME280;37364;46.974;18.916;2023-04-19T04:40:20;152630.69;;;9.06;100.00
51287;BME280;37364;46.974;18.916;2023-04-19T04:42:54;152656.53;;;9.16;100.00
51287;BME280;37364;46.974;18.916;2023-04-19T04:45:27;152670.78;;;9.22;100.00
51287;BME280;37364;46.974;18.916;2023-04-19T04:48:00;152685.00;;;9.27;100.00
51287;BME280;37364;46.974;18.916;2023-04-19T04:50:30;152706.97;;;9.36;100.00
51287;BME280;37364;46.974;18.916;2023-04-19T04:53:01;152696.63;;;9.32;100.00
51287;BME280;37364;46.974;18.916;2023-04-19T04:55:32;152700.53;;;9.34;100.00
51287;BME280;37364;46.974;18.916;2023-04-19T04:58:05;152721.22;;;9.42;100.00
51287;BME280;37364;46.974;18.916;2023-04-19T05:00:59;152743.19;;;9.50;100.00
51287;BME280;37364;46.974;18.916;2023-04-19T05:03:34;152750.97;;;9.54;100.00
51287;BME280;37364;46.974;18.916;2023-04-19T05:06:09;152748.41;;;9.53;100.00
51287;BME280;37364;46.974;18.916;2023-04-19T05:08:39;152779.44;;;9.65;100.00
51287;BME280;37364;46.974;18.916;2023-04-19T05:11:21;152785.91;;;9.67;100.00
51287;BME280;37364;46.974;18.916;2023-04-19T05:13:56;152811.78;;;9.78;100.00
51287;BME280;37364;46.974;18.916;2023-04-19T05:16:27;152846.69;;;9.92;100.00
51287;BME280;37364;46.974;18.916;2023-04-19T05:18:57;152870.00;;;10.01;100.00
51287;BME280;37364;46.974;18.916;2023-04-19T05:21:32;152899.78;;;10.13;100.00
51287;BME280;37364;46.974;18.916;2023-04-19T05:24:04;152924.38;;;10.22;100.00
51287;BME280;37364;46.974;18.916;2023-04-19T05:26:36;152961.97;;;10.37;100.00
51287;BME280;37364;46.974;18.916;2023-04-19T05:29:10;152980.06;;;10.44;100.00
51287;BME280;37364;46.974;18.916;2023-04-19T05:31:47;152996.94;;;10.51;100.00
51287;BME280;37364;46.974;18.916;2023-04-19T05:34:21;153003.38;;;10.54;100.00
51287;BME280;37364;46.974;18.916;2023-04-19T05:36:53;152976.22;;;10.43;100.00
51287;BME280;37364;46.974;18.916;2023-04-19T05:39:25;153000.81;;;10.53;100.00
51287;BME280;37364;46.974;18.916;2023-04-19T05:41:57;152993.03;;;10.49;100.00
51287;BME280;37364;46.974;18.916;2023-04-19T05:44:30;153009.84;;;10.56;100.00
51287;BME280;37364;46.974;18.916;2023-04-19T05:47:00;153068.13;;;10.79;100.00
51287;BME280;37364;46.974;18.916;2023-04-19T05:49:50;153127.69;;;11.03;100.00
51287;BME280;37364;46.974;18.916;2023-04-19T05:52:29;153145.84;;;11.10;100.00
51287;BME280;37364;46.974;18.916;2023-04-19T05:55:00;153204.16;;;11.33;100.00
51287;BME280;37364;46.974;18.916;2023-04-19T05:57:32;153248.19;;;11.51;100.00
51287;BME280;37364;46.974;18.916;2023-04-19T06:00:07;153293.53;;;11.68;100.00
51287;BME280;37364;46.974;18.916;2023-04-19T06:02:58;153357.09;;;11.94;100.00
51287;BME280;37364;46.974;18.916;2023-04-19T06:05:29;153401.13;;;12.11;100.00
51287;BME280;37364;46.974;18.916;2023-04-19T06:08:00;153489.28;;;12.46;100.00
51287;BME280;37364;46.974;18.916;2023-04-19T06:10:31;153528.16;;;12.61;100.00
51287;BME280;37364;46.974;18.916;2023-04-19T06:13:20;153512.63;;;12.55;100.00
51287;BME280;37364;46.974;18.916;2023-04-19T06:15:54;153535.97;;;12.64;100.00
51287;BME280;37364;46.974;18.916;2023-04-19T06:18:24;153510.00;;;12.54;100.00
51287;BME280;37364;46.974;18.916;2023-04-19T06:20:55;153541.16;;;12.66;100.00
51287;BME280;37364;46.974;18.916;2023-04-19T06:23:25;153537.25;;;12.65;100.00
51287;BME280;37364;46.974;18.916;2023-04-19T06:25:55;153586.53;;;12.84;100.00
51287;BME280;37364;46.974;18.916;2023-04-19T06:28:25;153608.56;;;12.93;100.00
51287;BME280;37364;46.974;18.916;2023-04-19T06:30:58;153538.53;;;12.65;100.00
51287;BME280;37364;46.974;18.916;2023-04-19T06:33:28;153634.53;;;13.03;100.00
51287;BME280;37364;46.974;18.916;2023-04-19T06:35:59;153650.09;;;13.10;100.00
51287;BME280;37364;46.974;18.916;2023-04-19T06:38:29;153650.09;;;13.10;100.00
51287;BME280;37364;46.974;18.916;2023-04-19T06:40:59;153631.91;;;13.02;100.00
51287;BME280;37364;46.974;18.916;2023-04-19T06:43:29;153650.09;;;13.10;100.00
51287;BME280;37364;46.974;18.916;2023-04-19T06:46:02;153656.56;;;13.12;100.00
51287;BME280;37364;46.974;18.916;2023-04-19T06:48:33;153615.06;;;12.96;100.00
51287;BME280;37364;46.974;18.916;2023-04-19T06:51:04;153657.84;;;13.13;100.00
51287;BME280;37364;46.974;18.916;2023-04-19T06:53:34;153676.03;;;13.20;100.00
51287;BME280;37364;46.974;18.916;2023-04-19T06:56:07;153743.53;;;13.47;100.00
51287;BME280;37364;46.974;18.916;2023-04-19T06:58:38;153748.72;;;13.49;100.00
51287;BME280;37364;46.974;18.916;2023-04-19T07:01:11;153738.31;;;13.44;100.00
51287;BME280;37364;46.974;18.916;2023-04-19T07:03:41;153762.97;;;13.54;100.00
51287;BME280;37364;46.974;18.916;2023-04-19T07:06:14;153909.59;;;14.12;100.00
51287;BME280;37364;46.974;18.916;2023-04-19T07:08:45;153884.94;;;14.02;100.00
51287;BME280;37364;46.974;18.916;2023-04-19T07:11:16;153940.75;;;14.24;100.00
51287;BME280;37364;46.974;18.916;2023-04-19T07:13:49;154008.28;;;14.51;100.00
51287;BME280;37364;46.974;18.916;2023-04-19T07:16:22;153917.41;;;14.15;100.00
51287;BME280;37364;46.974;18.916;2023-04-19T07:18:52;153929.09;;;14.20;100.00
51287;BME280;37364;46.974;18.916;2023-04-19T07:21:23;153935.56;;;14.22;100.00
51287;BME280;37364;46.974;18.916;2023-04-19T07:23:58;154026.50;;;14.58;100.00
51287;BME280;37364;46.974;18.916;2023-04-19T07:26:29;153978.41;;;14.39;96.83
51287;BME280;37364;46.974;18.916;2023-04-19T07:28:59;154068.03;;;14.75;98.44
51287;BME280;37364;46.974;18.916;2023-04-19T07:31:32;154210.91;;;15.31;99.37
51287;BME280;37364;46.974;18.916;2023-04-19T07:34:03;154203.09;;;15.28;91.79
51287;BME280;37364;46.974;18.916;2023-04-19T07:36:33;154191.41;;;15.23;90.05
51287;BME280;37364;46.974;18.916;2023-04-19T07:39:04;154122.59;;;14.96;88.27
51287;BME280;37364;46.974;18.916;2023-04-19T07:41:34;154279.75;;;15.58;90.92
51287;BME280;37364;46.974;18.916;2023-04-19T07:44:04;154307.03;;;15.69;83.03
51287;BME280;37364;46.974;18.916;2023-04-19T07:46:37;154244.69;;;15.45;83.09
51287;BME280;37364;46.974;18.916;2023-04-19T07:49:07;154171.94;;;15.16;83.79
51287;BME280;37364;46.974;18.916;2023-04-19T07:51:38;154038.19;;;14.63;84.01
51287;BME280;37364;46.974;18.916;2023-04-19T07:54:08;154087.53;;;14.82;89.00
51287;BME280;37364;46.974;18.916;2023-04-19T07:56:38;154119.97;;;14.95;89.59
51287;BME280;37364;46.974;18.916;2023-04-19T07:59:08;154029.09;;;14.59;87.73
51287;BME280;37364;46.974;18.916;2023-04-19T08:01:41;154074.50;;;14.77;91.41
51287;BME280;37364;46.974;18.916;2023-04-19T08:04:12;154074.50;;;14.77;88.77
51287;BME280;37364;46.974;18.916;2023-04-19T08:06:44;154016.03;;;14.54;92.30
51287;BME280;37364;46.974;18.916;2023-04-19T08:09:15;154006.97;;;14.51;93.57
51287;BME280;37364;46.974;18.916;2023-04-19T08:11:45;153988.78;;;14.43;91.46
51287;BME280;37364;46.974;18.916;2023-04-19T08:14:15;154068.03;;;14.75;90.43
51287;BME280;37364;46.974;18.916;2023-04-19T08:17:06;154070.63;;;14.76;90.86
51287;BME280;37364;46.974;18.916;2023-04-19T08:19:54;154118.66;;;14.95;88.87
51287;BME280;37364;46.974;18.916;2023-04-19T08:22:24;154148.53;;;15.07;89.91
51287;BME280;37364;46.974;18.916;2023-04-19T08:24:54;154243.34;;;15.44;89.75
51287;BME280;37364;46.974;18.916;2023-04-19T08:27:25;154218.66;;;15.34;86.94
51287;BME280;37364;46.974;18.916;2023-04-19T08:29:55;154231.69;;;15.39;88.26
51287;BME280;37364;46.974;18.916;2023-04-19T08:32:28;154225.19;;;15.37;88.52
51287;BME280;37364;46.974;18.916;2023-04-19T08:34:58;154251.16;;;15.47;85.12
51287;BME280;37364;46.974;18.916;2023-04-19T08:37:29;154296.63;;;15.65;88.44
51287;BME280;37364;46.974;18.916;2023-04-19T08:40:00;154388.97;;;16.01;87.40
51287;BME280;37364;46.974;18.916;2023-04-19T08:42:31;154373.31;;;15.95;83.42
51287;BME280;37364;46.974;18.916;2023-04-19T08:45:04;154369.47;;;15.94;81.61
51287;BME280;37364;46.974;18.916;2023-04-19T08:47:57;154264.13;;;15.52;86.07
51287;BME280;37364;46.974;18.916;2023-04-19T08:50:29;154166.75;;;15.14;88.45
51287;BME280;37364;46.974;18.916;2023-04-19T08:53:14;154232.97;;;15.40;88.38
51287;BME280;37364;46.974;18.916;2023-04-19T08:55:51;154207.00;;;15.30;85.80
51287;BME280;37364;46.974;18.916;2023-04-19T08:58:43;154247.25;;;15.46;81.60
51287;BME280;37364;46.974;18.916;2023-04-19T09:01:16;154265.47;;;15.53;82.68
51287;BME280;37364;46.974;18.916;2023-04-19T09:03:52;154310.94;;;15.71;79.09
51287;BME280;37364;46.974;18.916;2023-04-19T09:06:42;154261.56;;;15.51;80.18
51287;BME280;37364;46.974;18.916;2023-04-19T09:09:14;154269.38;;;15.54;81.63
51287;BME280;37364;46.974;18.916;2023-04-19T09:11:48;154495.50;;;16.44;84.28
51287;BME280;37364;46.974;18.916;2023-04-19T09:14:20;154634.66;;;16.98;77.02
51287;BME280;37364;46.974;18.916;2023-04-19T09:16:51;154604.75;;;16.87;71.58
51287;BME280;37364;46.974;18.916;2023-04-19T09:19:24;154533.22;;;16.58;77.94
51287;BME280;37364;46.974;18.916;2023-04-19T09:21:54;154424.03;;;16.15;66.98
51287;BME280;37364;46.974;18.916;2023-04-19T09:24:37;154366.84;;;15.93;67.74
51287;BME280;37364;46.974;18.916;2023-04-19T09:27:10;154472.09;;;16.34;71.26
51287;BME280;37364;46.974;18.916;2023-04-19T09:29:41;154498.13;;;16.45;71.19
51287;BME280;37364;46.974;18.916;2023-04-19T09:32:11;154490.31;;;16.41;72.43
51287;BME280;37364;46.974;18.916;2023-04-19T09:34:50;154495.50;;;16.44;75.54
51287;BME280;37364;46.974;18.916;2023-04-19T09:37:21;154360.34;;;15.90;75.16
51287;BME280;37364;46.974;18.916;2023-04-19T09:39:55;154473.44;;;16.35;76.51
51287;BME280;37364;46.974;18.916;2023-04-19T09:42:43;154463.03;;;16.31;69.50
51287;BME280;37364;46.974;18.916;2023-04-19T09:45:17;154604.75;;;16.87;68.60
51287;BME280;37364;46.974;18.916;2023-04-19T09:48:01;154535.81;;;16.59;68.27
51287;BME280;37364;46.974;18.916;2023-04-19T09:50:50;154398.00;;;16.05;73.83
51287;BME280;37364;46.974;18.916;2023-04-19T09:53:30;154374.66;;;15.96;70.71
51287;BME280;37364;46.974;18.916;2023-04-19T09:56:02;154291.44;;;15.63;71.94
51287;BME280;37364;46.974;18.916;2023-04-19T09:58:33;154309.66;;;15.70;72.44
51287;BME280;37364;46.974;18.916;2023-04-19T10:01:19;154452.59;;;16.27;74.21
51287;BME280;37364;46.974;18.916;2023-04-19T10:03:49;154530.59;;;16.57;78.53
51287;BME280;37364;46.974;18.916;2023-04-19T10:06:24;154767.34;;;17.51;78.66
51287;BME280;37364;46.974;18.916;2023-04-19T10:09:19;154623.00;;;16.94;72.07
51287;BME280;37364;46.974;18.916;2023-04-19T10:11:51;154711.38;;;17.29;74.89
51287;BME280;37364;46.974;18.916;2023-04-19T10:14:42;154818.06;;;17.71;80.79
51287;BME280;37364;46.974;18.916;2023-04-19T10:17:13;154816.78;;;17.70;73.40
51287;BME280;37364;46.974;18.916;2023-04-19T10:19:44;155005.50;;;18.45;71.68
51287;BME280;37364;46.974;18.916;2023-04-19T10:22:18;154922.22;;;18.12;68.55
51287;BME280;37364;46.974;18.916;2023-04-19T10:25:09;154560.50;;;16.69;75.40
51287;BME280;37364;46.974;18.916;2023-04-19T10:27:41;154626.84;;;16.95;67.07
51287;BME280;37364;46.974;18.916;2023-04-19T10:30:17;154956.06;;;18.25;70.53
51287;BME280;37364;46.974;18.916;2023-04-19T10:32:51;155096.66;;;18.81;75.72
51287;BME280;37364;46.974;18.916;2023-04-19T10:35:26;154980.78;;;18.35;63.61
51287;BME280;37364;46.974;18.916;2023-04-19T10:38:08;154995.09;;;18.41;72.47
51287;BME280;37364;46.974;18.916;2023-04-19T10:40:56;154913.09;;;18.08;73.80
51287;BME280;37364;46.974;18.916;2023-04-19T10:43:28;154755.59;;;17.46;69.07
51287;BME280;37364;46.974;18.916;2023-04-19T10:46:00;154600.84;;;16.85;71.00
51287;BME280;37364;46.974;18.916;2023-04-19T10:48:49;154503.31;;;16.47;72.68
51287;BME280;37364;46.974;18.916;2023-04-19T10:51:23;154446.13;;;16.24;72.50
51287;BME280;37364;46.974;18.916;2023-04-19T10:53:58;154403.22;;;16.07;71.11
51287;BME280;37364;46.974;18.916;2023-04-19T10:56:57;154489.03;;;16.41;70.75
51287;BME280;37364;46.974;18.916;2023-04-19T10:59:29;154535.81;;;16.59;71.58
51287;BME280;37364;46.974;18.916;2023-04-19T11:02:00;154582.63;;;16.78;71.22
51287;BME280;37364;46.974;18.916;2023-04-19T11:07:36;154655.47;;;17.07;69.66
51287;BME280;37364;46.974;18.916;2023-04-19T11:10:10;154824.56;;;17.73;67.03
51287;BME280;37364;46.974;18.916;2023-04-19T11:12:42;154982.06;;;18.35;71.52
51287;BME280;37364;46.974;18.916;2023-04-19T11:15:13;154832.38;;;17.76;71.19
51287;BME280;37364;46.974;18.916;2023-04-19T11:17:43;154730.88;;;17.36;72.31
51287;BME280;37364;46.974;18.916;2023-04-19T11:20:23;154572.19;;;16.74;70.76
51287;BME280;37364;46.974;18.916;2023-04-19T11:22:54;154426.63;;;16.16;75.10
51287;BME280;37364;46.974;18.916;2023-04-19T11:25:29;154535.81;;;16.59;80.63
51287;BME280;37364;46.974;18.916;2023-04-19T11:28:00;154548.81;;;16.65;74.76
51287;BME280;37364;46.974;18.916;2023-04-19T11:30:31;154505.91;;;16.48;78.24
51287;BME280;37364;46.974;18.916;2023-04-19T11:33:01;154459.13;;;16.29;73.11
51287;BME280;37364;46.974;18.916;2023-04-19T11:35:32;154504.63;;;16.47;75.99
51287;BME280;37364;46.974;18.916;2023-04-19T11:38:02;154598.28;;;16.84;77.69
51287;BME280;37364;46.974;18.916;2023-04-19T11:40:36;154468.25;;;16.33;72.97
51287;BME280;37364;46.974;18.916;2023-04-19T11:43:06;154595.66;;;16.83;78.20
51287;BME280;37364;46.974;18.916;2023-04-19T11:45:37;154616.44;;;16.91;77.14
51287;BME280;37364;46.974;18.916;2023-04-19T11:48:13;154538.44;;;16.60;72.48
51287;BME280;37364;46.974;18.916;2023-04-19T11:50:44;154587.84;;;16.80;73.80
51287;BME280;37364;46.974;18.916;2023-04-19T11:53:17;154637.28;;;16.99;78.31
51287;BME280;37364;46.974;18.916;2023-04-19T11:55:51;154638.59;;;17.00;73.01
51287;BME280;37364;46.974;18.916;2023-04-19T11:58:26;154658.09;;;17.08;75.58
51287;BME280;37364;46.974;18.916;2023-04-19T12:01:03;154798.53;;;17.63;75.65
51287;BME280;37364;46.974;18.916;2023-04-19T12:03:39;154736.09;;;17.38;74.79
51287;BME280;37364;46.974;18.916;2023-04-19T12:06:12;154753.03;;;17.45;71.86
51287;BME280;37364;46.974;18.916;2023-04-19T12:08:44;154594.38;;;16.83;72.26
51287;BME280;37364;46.974;18.916;2023-04-19T12:11:20;154559.22;;;16.69;71.31
51287;BME280;37364;46.974;18.916;2023-04-19T12:14:07;154619.06;;;16.92;79.15
51287;BME280;37364;46.974;18.916;2023-04-19T12:16:38;154596.94;;;16.84;70.78
51287;BME280;37364;46.974;18.916;2023-04-19T12:19:12;154574.81;;;16.75;71.07
51287;BME280;37364;46.974;18.916;2023-04-19T12:21:46;154607.38;;;16.88;69.25
51287;BME280;37364;46.974;18.916;2023-04-19T12:24:16;154729.59;;;17.36;72.53
51287;BME280;37364;46.974;18.916;2023-04-19T12:26:58;154690.56;;;17.20;75.94
51287;BME280;37364;46.974;18.916;2023-04-19T12:29:29;154818.06;;;17.71;78.79
51287;BME280;37364;46.974;18.916;2023-04-19T12:32:00;154794.63;;;17.62;79.62
51287;BME280;37364;46.974;18.916;2023-04-19T12:34:30;154616.44;;;16.91;84.13
51287;BME280;37364;46.974;18.916;2023-04-19T12:37:00;154651.56;;;17.05;85.07
51287;BME280;37364;46.974;18.916;2023-04-19T12:39:31;154567.00;;;16.72;84.28
51287;BME280;37364;46.974;18.916;2023-04-19T12:42:04;154534.50;;;16.59;83.85
51287;BME280;37364;46.974;18.916;2023-04-19T12:44:34;154538.44;;;16.60;83.63
51287;BME280;37364;46.974;18.916;2023-04-19T12:47:05;154629.47;;;16.96;82.44
51287;BME280;37364;46.974;18.916;2023-04-19T12:49:35;154756.94;;;17.47;79.49
51287;BME280;37364;46.974;18.916;2023-04-19T12:52:05;154727.03;;;17.35;73.93
51287;BME280;37364;46.974;18.916;2023-04-19T12:54:36;154580.00;;;16.77;74.86
51287;BME280;37364;46.974;18.916;2023-04-19T12:57:09;154786.88;;;17.58;77.66
51287;BME280;37364;46.974;18.916;2023-04-19T12:59:39;154933.91;;;18.16;75.58
51287;BME280;37364;46.974;18.916;2023-04-19T13:02:09;154965.16;;;18.29;74.73
51287;BME280;37364;46.974;18.916;2023-04-19T13:04:39;154762.13;;;17.49;78.21
51287;BME280;37364;46.974;18.916;2023-04-19T13:07:10;154582.63;;;16.78;80.13
51287;BME280;37364;46.974;18.916;2023-04-19T13:09:40;154495.50;;;16.44;81.20
51287;BME280;37364;46.974;18.916;2023-04-19T13:12:13;154548.81;;;16.65;84.91